createdAt,value
2019-05-13T00:00:44.618Z,2.42
2019-05-13T00:03:14.061Z,2.25
2019-05-13T00:05:44.500Z,2.08
2019-05-13T00:08:14.135Z,2.08
2019-05-13T00:10:44.545Z,2.17
2019-05-13T00:13:14.694Z,2.17
2019-05-13T00:15:44.495Z,2.70
2019-05-13T00:18:14.453Z,2.67
2019-05-13T00:20:44.320Z,2.60
2019-05-13T00:23:14.330Z,3.05
2019-05-13T00:25:44.390Z,3.08
2019-05-13T00:28:14.532Z,3.42
2019-05-13T00:30:44.538Z,3.37
2019-05-13T00:33:14.245Z,2.98
2019-05-13T00:35:44.222Z,2.67
2019-05-13T00:38:14.231Z,3.20
2019-05-13T00:40:44.357Z,3.37
2019-05-13T00:43:14.290Z,3.00
2019-05-13T00:45:44.906Z,2.95
2019-05-13T00:48:14.466Z,3.02
2019-05-13T00:50:44.507Z,2.70
2019-05-13T00:53:13.852Z,3.12
2019-05-13T00:55:44.484Z,3.00
2019-05-13T00:58:14.181Z,2.85
2019-05-13T01:00:44.627Z,3.10
2019-05-13T01:03:14.512Z,2.67
2019-05-13T01:05:44.459Z,2.72
2019-05-13T01:08:14.702Z,2.47
2019-05-13T01:10:45.120Z,2.80
2019-05-13T01:13:14.296Z,2.58
2019-05-13T01:15:44.265Z,2.22
2019-05-13T01:18:14.415Z,2.90
2019-05-13T01:20:44.003Z,2.85
2019-05-13T01:23:14.098Z,2.27
2019-05-13T01:25:44.431Z,2.17
2019-05-13T01:28:13.922Z,2.50
2019-05-13T01:30:43.927Z,2.60
2019-05-13T01:33:14.401Z,2.92
2019-05-13T01:35:44.502Z,2.67
2019-05-13T01:38:13.866Z,3.10
2019-05-13T01:40:44.029Z,2.45
2019-05-13T01:43:14.349Z,2.50
2019-05-13T01:45:44.117Z,2.40
2019-05-13T01:48:14.336Z,2.40
2019-05-13T01:50:44.439Z,2.62
2019-05-13T01:53:14.491Z,3.12
2019-05-13T01:55:44.307Z,2.62
2019-05-13T01:58:14.556Z,2.12
2019-05-13T02:00:44.456Z,2.70
2019-05-13T02:03:14.704Z,2.65
2019-05-13T02:05:44.491Z,2.90
2019-05-13T02:08:14.321Z,2.55
2019-05-13T02:10:57.035Z,2.62
2019-05-13T02:13:26.586Z,2.83
2019-05-13T02:15:56.077Z,2.65
2019-05-13T02:18:25.097Z,2.98
2019-05-13T02:20:55.438Z,3.10
2019-05-13T02:23:24.958Z,2.80
2019-05-13T02:25:54.543Z,2.77
2019-05-13T02:28:25.024Z,2.95
2019-05-13T02:30:56.709Z,3.42
2019-05-13T02:33:25.308Z,2.90
2019-05-13T02:35:54.590Z,2.47
2019-05-13T02:38:29.391Z,2.30
2019-05-13T02:40:54.346Z,2.47
2019-05-13T02:43:24.248Z,3.35
2019-05-13T02:45:54.466Z,2.80
2019-05-13T02:48:24.346Z,2.85
2019-05-13T02:50:54.671Z,3.25
2019-05-13T02:53:24.529Z,2.80
2019-05-13T02:55:54.017Z,3.40
2019-05-13T02:58:24.909Z,3.15
2019-05-13T03:00:54.389Z,3.08
2019-05-13T03:03:24.052Z,3.10
2019-05-13T03:05:53.867Z,3.47
2019-05-13T03:08:39.857Z,3.20
2019-05-13T03:10:54.155Z,2.55
2019-05-13T03:13:23.972Z,2.77
2019-05-13T03:16:18.776Z,3.35
2019-05-13T03:18:47.970Z,3.52
2019-05-13T03:21:16.981Z,4.33
2019-05-13T03:23:45.909Z,4.08
2019-05-13T03:26:14.902Z,4.05
2019-05-13T03:28:44.287Z,2.90
2019-05-13T03:31:16.895Z,2.90
2019-05-13T03:33:47.190Z,2.37
2019-05-13T03:36:17.263Z,3.40
2019-05-13T03:39:01.680Z,2.80
2019-05-13T03:41:18.552Z,2.58
2019-05-13T03:43:52.418Z,2.55
2019-05-13T03:46:23.083Z,3.00
2019-05-13T03:48:54.544Z,2.37
2019-05-13T03:51:23.951Z,2.72
2019-05-13T03:53:53.745Z,2.33
2019-05-13T03:56:24.109Z,2.83
2019-05-13T03:58:53.735Z,2.70
2019-05-13T04:01:23.218Z,3.33
2019-05-13T04:03:53.177Z,2.37
2019-05-13T04:06:23.258Z,2.42
2019-05-13T04:08:54.095Z,2.47
2019-05-13T04:11:23.334Z,3.00
2019-05-13T04:13:53.046Z,2.87
2019-05-13T04:16:23.780Z,2.47
2019-05-13T04:18:53.799Z,2.87
2019-05-13T04:21:23.375Z,2.52
2019-05-13T04:23:53.281Z,2.60
2019-05-13T04:26:23.504Z,2.58
2019-05-13T04:28:53.170Z,2.83
2019-05-13T04:31:22.952Z,2.90
2019-05-13T04:33:53.328Z,2.52
2019-05-13T04:36:23.726Z,2.30
2019-05-13T04:38:53.349Z,2.85
2019-05-13T04:41:23.159Z,2.80
2019-05-13T04:43:53.977Z,3.75
2019-05-13T04:46:24.355Z,3.08
2019-05-13T04:48:53.486Z,3.45
2019-05-13T04:51:23.065Z,3.55
2019-05-13T04:53:56.878Z,3.02
2019-05-13T04:56:23.311Z,3.10
2019-05-13T04:58:52.985Z,3.27
2019-05-13T05:01:59.408Z,3.12
2019-05-13T05:04:59.033Z,3.05
2019-05-13T05:07:42.060Z,2.42
2019-05-13T05:10:53.840Z,2.98
2019-05-13T05:14:12.019Z,2.77
2019-05-13T05:17:02.897Z,3.27
2019-05-13T05:20:03.661Z,3.22
2019-05-13T05:23:12.433Z,2.58
2019-05-13T05:26:05.098Z,3.70
2019-05-13T05:29:07.904Z,2.50
2019-05-13T05:32:03.007Z,3.85
2019-05-13T05:35:13.857Z,3.02
2019-05-13T05:38:25.983Z,2.90
2019-05-13T05:40:56.715Z,3.15
2019-05-13T05:43:31.364Z,3.33
2019-05-13T05:46:01.791Z,3.00
2019-05-13T05:48:32.763Z,2.87
2019-05-13T05:51:03.289Z,3.33
2019-05-13T05:53:32.463Z,2.62
2019-05-13T05:56:03.479Z,2.60
2019-05-13T05:58:34.138Z,2.30
2019-05-13T06:01:04.634Z,2.00
2019-05-13T06:03:35.439Z,2.25
2019-05-13T06:06:04.600Z,1.60
2019-05-13T06:08:33.835Z,1.92
2019-05-13T06:11:04.351Z,2.00
2019-05-13T06:13:33.441Z,1.55
2019-05-13T06:16:03.328Z,1.82
2019-05-13T06:18:32.723Z,1.87
2019-05-13T06:21:02.065Z,1.77
2019-05-13T06:23:31.457Z,1.57
2019-05-13T06:26:01.919Z,1.70
2019-05-13T06:28:32.247Z,1.57
2019-05-13T06:31:02.526Z,1.85
2019-05-13T06:33:31.921Z,2.08
2019-05-13T06:36:01.339Z,1.70
2019-05-13T06:38:31.638Z,1.60
2019-05-13T06:41:06.684Z,1.70
2019-05-13T06:43:32.155Z,1.60
2019-05-13T06:46:01.841Z,2.05
2019-05-13T06:48:32.312Z,1.92
2019-05-13T06:51:02.580Z,1.98
2019-05-13T06:53:32.459Z,1.47
2019-05-13T06:56:01.704Z,1.90
2019-05-13T06:58:32.498Z,2.27
2019-05-13T07:01:03.976Z,1.77
2019-05-13T07:03:33.312Z,2.12
2019-05-13T07:06:02.386Z,1.57
2019-05-13T07:08:31.616Z,1.80
2019-05-13T07:11:17.287Z,2.10
2019-05-13T07:13:32.469Z,1.30
2019-05-13T07:16:02.540Z,1.90
2019-05-13T07:18:32.402Z,1.67
2019-05-13T07:21:02.335Z,1.80
2019-05-13T07:23:32.294Z,1.70
2019-05-13T07:26:01.988Z,1.80
2019-05-13T07:28:32.298Z,2.00
2019-05-13T07:31:02.279Z,1.40
2019-05-13T07:33:32.303Z,1.57
2019-05-13T07:36:03.631Z,1.60
2019-05-13T07:38:33.410Z,1.77
2019-05-13T07:41:05.205Z,1.30
2019-05-13T07:43:34.312Z,1.25
2019-05-13T07:46:03.533Z,1.32
2019-05-13T07:48:32.731Z,1.10
2019-05-13T07:51:04.665Z,1.20
2019-05-13T07:53:34.454Z,1.35
2019-05-13T07:56:03.567Z,0.95
2019-05-13T07:58:37.122Z,1.20
2019-05-13T08:01:03.567Z,0.98
2019-05-13T08:03:32.584Z,0.78
2019-05-13T08:06:02.172Z,0.90
2019-05-13T08:08:32.369Z,0.85
2019-05-13T08:11:01.814Z,0.90
2019-05-13T08:13:31.571Z,0.60
2019-05-13T08:16:02.120Z,0.70
2019-05-13T08:18:32.037Z,1.10
2019-05-13T08:21:02.291Z,0.88
2019-05-13T08:23:32.527Z,1.00
2019-05-13T08:26:02.367Z,1.00
2019-05-13T08:28:32.554Z,1.57
2019-05-13T08:31:02.260Z,1.17
2019-05-13T08:33:32.322Z,1.30
2019-05-13T08:36:01.861Z,1.07
2019-05-13T08:38:32.087Z,1.00
2019-05-13T08:41:02.019Z,0.93
2019-05-13T08:43:31.868Z,1.00
2019-05-13T08:46:02.442Z,1.40
2019-05-13T08:48:32.314Z,0.90
2019-05-13T08:51:03.022Z,1.40
2019-05-13T08:53:32.557Z,1.40
2019-05-13T08:56:01.883Z,0.78
2019-05-13T08:58:32.056Z,1.17
2019-05-13T09:01:02.313Z,1.22
2019-05-13T09:03:32.723Z,1.60
2019-05-13T09:06:03.035Z,0.88
2019-05-13T09:08:32.305Z,1.22
2019-05-13T09:11:01.763Z,0.90
2019-05-13T09:13:33.063Z,1.02
2019-05-13T09:16:02.547Z,1.10
2019-05-13T09:18:32.320Z,1.02
2019-05-13T09:21:02.719Z,1.07
2019-05-13T09:23:32.523Z,0.90
2019-05-13T09:26:02.542Z,1.20
2019-05-13T09:28:32.519Z,1.00
2019-05-13T09:31:02.253Z,1.22
2019-05-13T09:33:32.760Z,1.10
2019-05-13T09:36:02.483Z,1.00
2019-05-13T09:38:32.611Z,1.20
2019-05-13T09:41:02.304Z,1.70
2019-05-13T09:43:31.740Z,2.12
2019-05-13T09:46:01.856Z,1.27
2019-05-13T09:48:32.108Z,1.12
2019-05-13T09:51:02.614Z,1.25
2019-05-13T09:53:33.098Z,1.20
2019-05-13T09:56:02.574Z,1.02
2019-05-13T09:58:33.028Z,1.42
2019-05-13T10:01:02.654Z,1.47
2019-05-13T10:03:33.139Z,0.95
2019-05-13T10:06:02.800Z,1.20
2019-05-13T10:08:32.871Z,1.30
2019-05-13T10:11:02.358Z,1.32
2019-05-13T10:13:31.827Z,1.20
2019-05-13T10:16:01.545Z,1.20
2019-05-13T10:18:32.683Z,1.27
2019-05-13T10:21:03.279Z,1.55
2019-05-13T10:23:33.122Z,1.72
2019-05-13T10:26:05.088Z,1.10
2019-05-13T10:28:35.006Z,1.70
2019-05-13T10:31:05.000Z,1.75
2019-05-13T10:33:34.293Z,1.77
2019-05-13T10:36:04.889Z,1.80
2019-05-13T10:38:34.069Z,2.00
2019-05-13T10:41:03.861Z,1.60
2019-05-13T10:43:33.355Z,1.50
2019-05-13T10:46:04.188Z,1.45
2019-05-13T10:48:33.353Z,1.60
2019-05-13T10:51:02.574Z,2.00
2019-05-13T10:53:32.200Z,2.08
2019-05-13T10:56:03.289Z,1.67
2019-05-13T10:58:32.749Z,1.50
2019-05-13T11:01:02.889Z,1.72
2019-05-13T11:03:33.256Z,2.12
2019-05-13T11:06:02.851Z,1.52
2019-05-13T11:08:33.114Z,1.00
2019-05-13T11:11:03.181Z,1.45
2019-05-13T11:13:50.860Z,1.72
2019-05-13T11:16:03.517Z,1.82
2019-05-13T11:18:33.081Z,1.80
2019-05-13T11:21:03.732Z,1.45
2019-05-13T11:23:32.894Z,1.45
2019-05-13T11:26:03.236Z,1.60
2019-05-13T11:28:33.095Z,1.12
2019-05-13T11:31:03.366Z,1.30
2019-05-13T11:33:32.887Z,1.25
2019-05-13T11:36:03.344Z,1.60
2019-05-13T11:38:33.081Z,1.55
2019-05-13T11:41:03.206Z,1.55
2019-05-13T11:43:33.234Z,1.72
2019-05-13T11:46:03.290Z,1.60
2019-05-13T11:48:32.713Z,1.35
2019-05-13T11:51:04.024Z,1.30
2019-05-13T11:53:34.504Z,0.90
2019-05-13T11:56:04.083Z,1.42
2019-05-13T11:58:33.444Z,0.75
2019-05-13T12:01:03.418Z,0.90
2019-05-13T12:03:32.822Z,0.90
2019-05-13T12:06:02.589Z,1.25
2019-05-13T12:08:33.749Z,1.30
2019-05-13T12:11:05.089Z,1.05
2019-05-13T12:13:34.336Z,1.22
2019-05-13T12:16:03.996Z,1.10
2019-05-13T12:18:33.378Z,1.02
2019-05-13T12:21:03.608Z,0.70
2019-05-13T12:23:33.378Z,0.70
2019-05-13T12:26:04.288Z,0.60
2019-05-13T12:28:33.336Z,0.40
2019-05-13T12:31:03.409Z,0.40
2019-05-13T12:33:33.012Z,0.37
2019-05-13T12:36:02.503Z,0.40
2019-05-13T12:38:33.176Z,0.45
2019-05-13T12:41:05.215Z,0.23
2019-05-13T12:43:33.271Z,0.40
2019-05-13T12:46:02.728Z,0.35
2019-05-13T12:48:32.002Z,0.40
2019-05-13T12:51:02.978Z,0.65
2019-05-13T12:53:32.344Z,0.40
2019-05-13T12:56:03.278Z,0.20
2019-05-13T12:58:33.828Z,0.40
2019-05-13T13:01:03.633Z,0.45
2019-05-13T13:03:32.743Z,0.50
2019-05-13T13:06:25.182Z,0.70
2019-05-13T13:08:42.384Z,0.75
2019-05-13T13:11:03.698Z,0.50
2019-05-13T13:13:54.038Z,0.70
2019-05-13T13:16:03.933Z,0.53
2019-05-13T13:18:33.747Z,0.80
2019-05-13T13:21:07.376Z,0.68
2019-05-13T13:23:34.198Z,0.60
2019-05-13T13:26:03.648Z,0.55
2019-05-13T13:28:34.043Z,0.72
2019-05-13T13:31:05.159Z,0.60
2019-05-13T13:33:34.637Z,0.50
2019-05-13T13:36:05.134Z,0.55
2019-05-13T13:38:35.990Z,0.35
2019-05-13T13:41:05.663Z,1.05
2019-05-13T13:43:37.096Z,0.60
2019-05-13T13:46:19.541Z,0.78
2019-05-13T13:48:36.423Z,0.95
2019-05-13T13:51:05.566Z,0.70
2019-05-13T13:53:34.738Z,1.02
2019-05-13T13:56:03.963Z,0.53
2019-05-13T13:58:33.196Z,0.53
2019-05-13T14:01:11.490Z,0.50
2019-05-13T14:03:34.776Z,0.65
2019-05-13T14:20:47.385Z,0.93
2019-05-13T14:23:16.485Z,1.30
2019-05-13T14:25:45.584Z,0.40
2019-05-13T14:28:17.535Z,0.40
2019-05-13T14:30:45.809Z,0.70
2019-05-13T14:33:14.906Z,0.88
2019-05-13T14:35:44.091Z,0.85
2019-05-13T14:38:13.172Z,0.88
2019-05-13T14:40:42.360Z,0.55
2019-05-13T14:43:12.167Z,1.10
2019-05-13T14:45:41.726Z,0.50
2019-05-13T14:48:12.629Z,1.00
2019-05-13T14:50:41.844Z,0.80
2019-05-13T14:53:11.057Z,0.70
2019-05-13T14:55:41.960Z,0.60
2019-05-13T14:58:11.162Z,0.45
2019-05-13T15:00:42.276Z,0.90
2019-05-13T15:03:13.036Z,0.72
2019-05-13T15:05:43.056Z,0.47
2019-05-13T15:08:13.364Z,0.80
2019-05-13T15:10:42.784Z,0.90
2019-05-13T15:13:11.926Z,0.93
2019-05-13T15:15:42.181Z,0.72
2019-05-13T15:18:12.510Z,0.72
2019-05-13T15:20:41.843Z,1.30
2019-05-13T15:23:11.939Z,0.80
2019-05-13T15:25:42.005Z,0.60
2019-05-13T15:28:12.064Z,0.60
2019-05-13T15:30:42.077Z,0.50
2019-05-13T15:33:11.592Z,0.80
2019-05-13T15:35:41.945Z,0.80
2019-05-13T15:38:12.558Z,0.82
2019-05-13T15:40:42.123Z,0.70
2019-05-13T15:43:11.734Z,0.70
2019-05-13T15:45:42.483Z,1.10
2019-05-13T15:48:11.819Z,0.70
2019-05-13T15:50:42.186Z,0.62
2019-05-13T15:53:12.775Z,0.53
2019-05-13T15:55:42.410Z,0.68
2019-05-13T15:58:11.921Z,0.80
2019-05-13T16:00:42.016Z,1.40
2019-05-13T16:03:12.243Z,0.82
2019-05-13T16:05:42.452Z,0.70
2019-05-13T16:08:12.375Z,0.62
2019-05-13T16:10:42.177Z,0.60
2019-05-13T16:13:11.950Z,0.60
2019-05-13T16:15:41.730Z,0.55
2019-05-13T16:18:11.721Z,0.55
2019-05-13T16:20:44.471Z,0.88
2019-05-13T16:23:13.918Z,0.70
2019-05-13T16:25:43.161Z,0.42
2019-05-13T16:28:12.370Z,0.80
2019-05-13T16:30:42.016Z,0.82
2019-05-13T16:33:12.263Z,1.10
2019-05-13T16:35:42.512Z,0.80
2019-05-13T16:38:11.807Z,0.93
2019-05-13T16:40:42.385Z,0.75
2019-05-13T16:43:13.845Z,0.60
2019-05-13T16:45:42.688Z,0.82
2019-05-13T16:48:12.563Z,1.35
2019-05-13T16:50:41.993Z,0.65
2019-05-13T16:53:11.287Z,0.88
2019-05-13T16:55:41.664Z,0.70
2019-05-13T16:58:12.529Z,0.80
2019-05-13T17:00:42.435Z,0.72
2019-05-13T17:03:12.090Z,0.93
2019-05-13T17:05:42.029Z,0.60
2019-05-13T17:08:11.512Z,1.02
2019-05-13T17:10:42.027Z,1.00
2019-05-13T17:13:11.780Z,1.02
2019-05-13T17:15:41.692Z,1.05
2019-05-13T17:18:12.903Z,1.27
2019-05-13T17:20:41.750Z,1.00
2019-05-13T17:23:12.434Z,1.02
2019-05-13T17:25:42.287Z,1.00
2019-05-13T17:28:13.311Z,1.10
2019-05-13T17:30:43.215Z,0.90
2019-05-13T17:33:12.408Z,1.10
2019-05-13T17:35:44.053Z,1.10
2019-05-13T17:38:16.455Z,1.27
2019-05-13T17:40:50.258Z,1.22
2019-05-13T17:43:21.349Z,1.10
2019-05-13T17:45:52.321Z,1.37
2019-05-13T17:48:26.773Z,1.35
2019-05-13T17:50:52.460Z,1.30
2019-05-13T17:53:21.749Z,1.40
2019-05-13T17:55:51.636Z,1.25
2019-05-13T17:58:22.169Z,1.32
2019-05-13T18:00:52.177Z,1.50
2019-05-13T18:03:21.829Z,1.22
2019-05-13T18:05:51.519Z,2.30
2019-05-13T18:08:20.868Z,1.30
2019-05-13T18:10:51.381Z,1.57
2019-05-13T18:13:21.534Z,1.60
2019-05-13T18:15:50.774Z,1.80
2019-05-13T18:18:21.531Z,1.50
2019-05-13T18:20:52.081Z,1.32
2019-05-13T18:23:21.558Z,1.20
2019-05-13T18:25:51.491Z,1.50
2019-05-13T18:28:28.488Z,1.70
2019-05-13T18:30:52.415Z,1.87
2019-05-13T18:33:21.656Z,1.10
2019-05-13T18:35:52.578Z,1.62
2019-05-13T18:38:21.980Z,1.25
2019-05-13T18:40:52.619Z,1.22
2019-05-13T18:43:23.100Z,2.40
2019-05-13T18:45:52.770Z,1.50
2019-05-13T18:48:22.438Z,1.98
2019-05-13T18:50:52.376Z,1.70
2019-05-13T18:53:21.726Z,0.95
2019-05-13T18:55:52.398Z,1.20
2019-05-13T18:58:22.420Z,1.40
2019-05-13T19:00:52.410Z,1.60
2019-05-13T19:03:21.918Z,1.52
2019-05-13T19:05:51.126Z,1.47
2019-05-13T19:08:21.528Z,1.50
2019-05-13T19:10:52.191Z,1.50
2019-05-13T19:13:21.920Z,1.80
2019-05-13T19:15:51.826Z,1.60
2019-05-13T19:18:21.538Z,1.57
2019-05-13T19:20:51.342Z,1.60
2019-05-13T19:23:20.610Z,1.22
2019-05-13T19:25:51.327Z,0.82
2019-05-13T19:28:22.255Z,0.95
2019-05-13T19:30:51.864Z,0.98
2019-05-13T19:33:22.128Z,1.20
2019-05-13T19:35:51.886Z,0.90
2019-05-13T19:38:21.477Z,1.17
2019-05-13T19:40:50.617Z,1.40
2019-05-13T19:43:21.687Z,1.17
2019-05-13T19:45:51.912Z,0.80
2019-05-13T19:48:21.813Z,1.35
2019-05-13T19:50:52.104Z,1.07
2019-05-13T19:53:21.786Z,0.90
2019-05-13T19:55:51.966Z,0.90
2019-05-13T19:58:21.691Z,1.62
2019-05-13T20:00:51.572Z,1.10
2019-05-13T20:03:22.628Z,1.20
2019-05-13T20:05:52.005Z,1.20
2019-05-13T20:08:21.252Z,0.93
2019-05-13T20:10:51.483Z,1.22
2019-05-13T20:13:21.871Z,1.22
2019-05-13T20:15:51.849Z,1.42
2019-05-13T20:18:22.879Z,1.15
2019-05-13T20:20:52.068Z,1.05
2019-05-13T20:23:21.369Z,1.10
2019-05-13T20:25:52.272Z,1.40
2019-05-13T20:28:21.639Z,1.35
2019-05-13T20:30:51.131Z,1.62
2019-05-13T20:33:22.135Z,1.60
2019-05-13T20:35:52.366Z,1.35
2019-05-13T20:38:22.169Z,1.35
2019-05-13T20:40:51.928Z,1.17
2019-05-13T20:43:22.519Z,1.22
2019-05-13T20:45:51.860Z,1.55
2019-05-13T20:48:21.286Z,1.60
2019-05-13T20:50:51.890Z,1.67
2019-05-13T20:53:21.970Z,1.50
2019-05-13T20:55:52.080Z,1.92
2019-05-13T20:58:21.500Z,1.50
2019-05-13T21:00:51.540Z,1.75
2019-05-13T21:03:22.156Z,1.40
2019-05-13T21:05:52.273Z,1.87
2019-05-13T21:08:21.787Z,1.82
2019-05-13T21:10:51.707Z,2.10
2019-05-13T21:13:21.255Z,1.82
2019-05-13T21:15:51.901Z,2.02
2019-05-13T21:18:22.150Z,1.95
2019-05-13T21:20:51.847Z,1.57
2019-05-13T21:23:21.734Z,1.87
2019-05-13T21:25:51.266Z,2.08
2019-05-13T21:28:22.068Z,2.08
2019-05-13T21:30:51.516Z,2.05
2019-05-13T21:33:22.156Z,1.90
2019-05-13T21:35:51.500Z,1.80
2019-05-13T21:38:22.241Z,2.08
2019-05-13T21:40:52.213Z,1.90
2019-05-13T21:43:21.902Z,2.52
2019-05-13T21:45:52.296Z,1.85
2019-05-13T21:48:21.915Z,2.10
2019-05-13T21:50:54.038Z,2.17
2019-05-13T21:53:24.577Z,1.80
2019-05-13T21:55:53.895Z,2.10
2019-05-13T21:58:22.988Z,2.30
2019-05-13T22:00:53.791Z,2.33
2019-05-13T22:03:23.142Z,2.98
2019-05-13T22:05:52.179Z,1.77
2019-05-13T22:08:21.723Z,2.35
2019-05-13T22:10:52.428Z,2.37
2019-05-13T22:13:21.788Z,2.27
2019-05-13T22:15:52.469Z,2.77
2019-05-13T22:18:21.700Z,2.70
2019-05-13T22:20:53.599Z,2.62
2019-05-13T22:23:21.691Z,2.75
2019-05-13T22:25:51.927Z,2.25
2019-05-13T22:28:22.094Z,2.20
2019-05-13T22:30:51.792Z,2.42
2019-05-13T22:33:21.579Z,2.37
2019-05-13T22:35:52.286Z,2.92
2019-05-13T22:38:21.621Z,2.65
2019-05-13T22:40:52.090Z,2.87
2019-05-13T22:43:21.608Z,2.30
2019-05-13T22:45:51.151Z,2.75
2019-05-13T22:48:22.255Z,2.47
2019-05-13T22:50:52.328Z,2.50
2019-05-13T22:53:21.382Z,2.62
2019-05-13T22:55:52.137Z,2.12
2019-05-13T22:58:22.576Z,2.67
2019-05-13T23:00:52.125Z,2.40
2019-05-13T23:03:21.292Z,3.10
2019-05-13T23:05:52.237Z,2.17
2019-05-13T23:08:21.752Z,2.20
2019-05-13T23:10:51.527Z,2.65
2019-05-13T23:13:20.861Z,2.27
2019-05-13T23:15:51.660Z,2.70
2019-05-13T23:18:22.217Z,2.25
2019-05-13T23:20:51.663Z,2.70
2019-05-13T23:23:22.142Z,2.22
2019-05-13T23:25:51.359Z,2.55
2019-05-13T23:28:21.649Z,2.20
2019-05-13T23:30:51.236Z,2.27
2019-05-13T23:33:21.947Z,2.67
2019-05-13T23:35:51.372Z,2.67
2019-05-13T23:38:21.402Z,2.70
2019-05-13T23:40:51.621Z,2.70
2019-05-13T23:43:21.690Z,3.25
2019-05-13T23:45:51.331Z,3.25
2019-05-13T23:48:21.567Z,2.90
2019-05-13T23:50:52.091Z,3.10
2019-05-13T23:53:22.095Z,3.12
2019-05-13T23:55:52.028Z,3.20
2019-05-13T23:58:21.839Z,2.33
